STATION HISTORICAL DATA FROM WUNDERGROUND.COM FOR HIGH PARK VILLAGE,TORONTO,ON,CANADA
 
Daily Summary for February 21, 2020 Units:  Metric    English   Both
Next Day »
Daily Weekly Monthly Yearly Custom
  Current: High: Low: Average:
Temperature: -0.9 °C 4.2 °C -8.8 °C -3.6 °C
Dew Point: -7.9 °C -6 °C -12.9 °C -9.9 °C
Humidity: 59% 76% 37% 63%
Wind Speed: 11.1km/h 18.5km/h 0km/h 8.2km/h
Wind Gust: 4.8km/h 8.2km/h - -
WindSSE - - SSE
Pressure: 1021.2 hPa 1032.7 hPa 1020.9 hPa -
Precipitation: 0 mm      
Historical Graphs
 
 
Tabular Data for February 21, 2020
Time Temperature Dew Point Pressure Wind Wind Speed Wind Gust Humidity Rainfall Rate (Hourly) Solar Conditions
00:00 -8.8 °C -12.9 °C 1032.7 hPa South 5.6 km/h 0.3 km/h 72% 0 mm 0.00 W/m2 OVC
00:05 -8.8 °C -12.7 °C 1032.7 hPa South 5.6 km/h 0.3 km/h 73% 0 mm 0.00 W/m2 OVC
00:10 -8.8 °C -12.7 °C 1032.7 hPa Calm     73% 0 mm 0.00 W/m2 OVC
00:15 -8.8 °C -12.7 °C 1032.7 hPa Calm     73% 0 mm 0.00 W/m2 CLR
00:20 -8.7 °C -12.7 °C 1032.7 hPa Calm     73% 0 mm 0.00 W/m2 OVC
00:25 -8.7 °C -12.6 °C 1032.7 hPa Calm     73% 0 mm 0.00 W/m2 OVC
00:30 -8.7 °C -12.4 °C 1032.7 hPa Calm     74% 0 mm 0.00 W/m2 OVC
00:35 -8.6 °C -12.4 °C 1032.7 hPa Calm     74% 0 mm 0.00 W/m2 CLR
00:40 -8.6 °C -12.3 °C 1032.4 hPa Calm     74% 0 mm 0.00 W/m2 OVC
00:45 -8.5 °C -12.3 °C 1032.4 hPa Calm     74% 0 mm 0.00 W/m2 OVC
00:50 -8.4 °C -12.2 °C 1032.4 hPa Calm     74% 0 mm 0.00 W/m2 OVC
00:55 -8.3 °C -12.1 °C 1032.4 hPa South 1.9 km/h   74% 0 mm 0.00 W/m2 CLR
01:00 -8.3 °C -12.1 °C 1032.4 hPa South 1.9 km/h   74% 0 mm 0.00 W/m2 OVC
01:05 -8.3 °C -12.1 °C 1032.4 hPa South 1.9 km/h   74% 0 mm 0.00 W/m2 OVC
01:10 -8.2 °C -12 °C 1032.4 hPa South 1.9 km/h   74% 0 mm 0.00 W/m2 OVC
01:15 -8.2 °C -12 °C 1032.1 hPa South 1.9 km/h   74% 0 mm 0.00 W/m2 CLR
01:20 -8.2 °C -12 °C 1032.1 hPa South 1.9 km/h   74% 0 mm 0.00 W/m2 OVC
01:25 -8.2 °C -12 °C 1032.1 hPa South 1.9 km/h   74% 0 mm 0.00 W/m2 OVC
01:30 -8.3 °C -11.9 °C 1032.1 hPa Calm     75% 0 mm 0.00 W/m2 OVC
01:35 -8.2 °C -11.8 °C 1032.1 hPa Calm     75% 0 mm 0.00 W/m2 CLR
01:40 -8.3 °C -11.9 °C 1032.1 hPa Calm     75% 0 mm 0.00 W/m2 CLR
01:45 -8.3 °C -11.9 °C 1032.1 hPa Calm     75% 0 mm 0.00 W/m2 OVC
01:50 -8.2 °C -11.8 °C 1032.1 hPa Calm     75% 0 mm 0.00 W/m2 OVC
01:55 -8.2 °C -11.8 °C 1032.1 hPa Calm     75% 0 mm 0.00 W/m2 CLR
02:00 -8.2 °C -11.8 °C 1032.1 hPa Calm     75% 0 mm 0.00 W/m2 OVC
02:05 -8.2 °C -11.8 °C 1032.1 hPa South 1.9 km/h   75% 0 mm 0.00 W/m2 CLR
02:10 -8.2 °C -11.8 °C 1032.1 hPa SSE 1.9 km/h   75% 0 mm 0.00 W/m2 OVC
02:44 -8.4 °C -12 °C 1031.7 hPa SSE 7.4 km/h 2.1 km/h 75% 0 mm 0.00 W/m2 OVC
02:45 -8.4 °C -12 °C 1031.7 hPa SSE 7.4 km/h 2.1 km/h 75% 0 mm 0.00 W/m2 CLR
02:52 -8.4 °C -12 °C 1031.7 hPa SSE 7.4 km/h 1.4 km/h 75% 0 mm 0.00 W/m2 CLR
02:55 -8.3 °C -11.9 °C 1031.7 hPa SSE 7.4 km/h 1.3 km/h 75% 0 mm 0.00 W/m2 CLR
03:00 -8.3 °C -11.9 °C 1031.7 hPa SSE 3.7 km/h 0.8 km/h 75% 0 mm 0.00 W/m2 OVC
03:05 -8.4 °C -11.8 °C 1031.7 hPa SSE 5.6 km/h 1.4 km/h 76% 0 mm 0.00 W/m2 OVC
03:10 -8.3 °C -11.8 °C 1031.7 hPa SSE 7.4 km/h 1.9 km/h 76% 0 mm 0.00 W/m2 CLR
03:15 -8.3 °C -11.8 °C 1031.7 hPa SSE 7.4 km/h 1.9 km/h 76% 0 mm 0.00 W/m2 CLR
03:20 -8.3 °C -11.8 °C 1031.7 hPa SSE 7.4 km/h 1.6 km/h 76% 0 mm 0.00 W/m2 OVC
03:26 -8.3 °C -11.7 °C 1031.4 hPa SSE 3.7 km/h 1 km/h 76% 0 mm 0.00 W/m2 OVC
03:30 -8.3 °C -11.8 °C 1031.4 hPa SSE 3.7 km/h 1 km/h 76% 0 mm 0.00 W/m2 OVC
03:35 -8.3 °C -11.8 °C 1031.4 hPa SSE 7.4 km/h 1.3 km/h 76% 0 mm 0.00 W/m2 CLR
03:40 -8.4 °C -11.8 °C 1031.4 hPa SSE 7.4 km/h 2.3 km/h 76% 0 mm 0.00 W/m2 OVC
03:45 -8.4 °C -11.8 °C 1031.4 hPa SSE 7.4 km/h 2.1 km/h 76% 0 mm 0.00 W/m2 OVC
03:50 -8.4 °C -11.8 °C 1031 hPa SSE 7.4 km/h 2.1 km/h 76% 0 mm 0.00 W/m2 CLR
03:55 -8.4 °C -12 °C 1031 hPa SSE 7.4 km/h 2.4 km/h 75% 0 mm 0.00 W/m2 CLR
04:00 -8.3 °C -11.9 °C 1031 hPa SSE 7.4 km/h 2.1 km/h 75% 0 mm 0.00 W/m2 OVC
04:05 -8.3 °C -11.9 °C 1031 hPa SSE 5.6 km/h 2.1 km/h 75% 0 mm 0.00 W/m2 CLR
04:10 -8.3 °C -11.9 °C 1031 hPa SSE 3.7 km/h 2.1 km/h 75% 0 mm 0.00 W/m2 OVC
04:15 -8.3 °C -11.9 °C 1031 hPa SSE 7.4 km/h 2.4 km/h 75% 0 mm 0.00 W/m2 OVC
04:20 -8.3 °C -11.9 °C 1031 hPa SSE 7.4 km/h 2.3 km/h 75% 0 mm 0.00 W/m2 CLR
04:25 -8.2 °C -12 °C 1031 hPa SSE 5.6 km/h 1.4 km/h 74% 0 mm 0.00 W/m2 OVC
04:30 -8.3 °C -12.1 °C 1031 hPa SSE 5.6 km/h 1.4 km/h 74% 0 mm 0.00 W/m2 CLR
04:35 -8.3 °C -12.1 °C 1031 hPa SSE 5.6 km/h 1.6 km/h 74% 0 mm 0.00 W/m2 OVC
04:40 -8.3 °C -12.1 °C 1031 hPa SSE 5.6 km/h 1.4 km/h 74% 0 mm 0.00 W/m2 OVC
04:45 -8.3 °C -12.1 °C 1031 hPa SSE 5.6 km/h 0.8 km/h 74% 0 mm 0.00 W/m2 CLR
04:50 -8.3 °C -12.1 °C 1031 hPa SSE 3.7 km/h   74% 0 mm 0.00 W/m2 CLR
04:55 -8.3 °C -12.1 °C 1031 hPa SSE 3.7 km/h   74% 0 mm 0.00 W/m2 CLR
05:00 -8.3 °C -12.1 °C 1031 hPa SSE 3.7 km/h   74% 0 mm 0.00 W/m2 OVC
05:05 -8.3 °C -12.1 °C 1031 hPa SSE 3.7 km/h 0.3 km/h 74% 0 mm 0.00 W/m2 CLR
05:10 -8.2 °C -12 °C 1031 hPa SSE 3.7 km/h 1.1 km/h 74% 0 mm 0.00 W/m2 OVC
05:15 -8.2 °C -12 °C 1031 hPa SSE 5.6 km/h 1.1 km/h 74% 0 mm 0.00 W/m2 OVC
05:20 -8.2 °C -12 °C 1031 hPa SSE 5.6 km/h 0.8 km/h 74% 0 mm 0.00 W/m2 CLR
05:25 -8.2 °C -12.2 °C 1031 hPa SSE 7.4 km/h 1.4 km/h 73% 0 mm 0.00 W/m2 CLR
05:30 -8.2 °C -12.2 °C 1031 hPa SSE 7.4 km/h 1.9 km/h 73% 0 mm 0.00 W/m2 OVC
05:35 -8.2 °C -12.2 °C 1031 hPa SSE 7.4 km/h 1.9 km/h 73% 0 mm 0.00 W/m2 OVC
05:40 -8.2 °C -12.2 °C 1031 hPa SSE 7.4 km/h 1.4 km/h 73% 0 mm 0.00 W/m2 CLR
05:45 -8.2 °C -12.2 °C 1031 hPa SSE 3.7 km/h 1.1 km/h 73% 0 mm 0.00 W/m2 CLR
05:50 -8.2 °C -12.2 °C 1031 hPa SSE 5.6 km/h 1.1 km/h 73% 0 mm 0.00 W/m2 OVC
05:55 -8.2 °C -12.2 °C 1031 hPa SSE 5.6 km/h 1 km/h 73% 0 mm 0.00 W/m2 CLR
06:00 -8.1 °C -12.3 °C 1031 hPa SSE 3.7 km/h 0.5 km/h 72% 0 mm 0.00 W/m2 OVC
06:05 -8.1 °C -12.3 °C 1031 hPa SSE 3.7 km/h 1 km/h 72% 0 mm 0.00 W/m2 OVC
06:10 -8.2 °C -12.3 °C 1031 hPa SSE 5.6 km/h 1.6 km/h 72% 0 mm 0.00 W/m2 CLR
06:15 -8.2 °C -12.3 °C 1030.7 hPa SSE 5.6 km/h 1.1 km/h 72% 0 mm 0.00 W/m2 CLR
06:20 -8.2 °C -12.4 °C 1030.7 hPa SSE 5.6 km/h 1.3 km/h 72% 0 mm 0.00 W/m2 CLR
06:25 -8.2 °C -12.3 °C 1030.7 hPa SSE 5.6 km/h 1.3 km/h 72% 0 mm 0.00 W/m2 OVC
06:30 -8.2 °C -12.4 °C 1030.7 hPa SSE 7.4 km/h 1.1 km/h 72% 0 mm 0.00 W/m2 CLR
06:35 -8.2 °C -12.4 °C 1030.7 hPa SSE 7.4 km/h 1 km/h 72% 0 mm 0.00 W/m2 CLR
06:40 -8.3 °C -12.4 °C 1030.7 hPa SSE 5.6 km/h 1 km/h 72% 0 mm 0.00 W/m2 OVC
06:45 -8.3 °C -12.4 °C 1030.7 hPa SSE 3.7 km/h 0.3 km/h 72% 0 mm 0.00 W/m2 CLR
06:50 -8.3 °C -12.4 °C 1030.4 hPa SSE 3.7 km/h 0.5 km/h 72% 0 mm 0.00 W/m2 OVC
06:55 -8.3 °C -12.4 °C 1030.4 hPa SSE 3.7 km/h 0.5 km/h 72% 0 mm 0.00 W/m2 OVC
07:00 -8.3 °C -12.4 °C 1030.4 hPa SSE 3.7 km/h 0.5 km/h 72% 0 mm 0.00 W/m2 OVC
07:05 -8.3 °C -12.4 °C 1030.4 hPa SSE 3.7 km/h 0.5 km/h 72% 0 mm 0.00 W/m2 CLR
07:10 -8.3 °C -12.4 °C 1030.4 hPa SSE 3.7 km/h 1.3 km/h 72% 0 mm 0.00 W/m2 OVC
07:15 -8.3 °C -12.4 °C 1030.7 hPa SSE 3.7 km/h 1.3 km/h 72% 0 mm 0.00 W/m2 OVC
07:20 -8.2 °C -12.4 °C 1030.7 hPa SSE 5.6 km/h 0.3 km/h 72% 0 mm 0.00 W/m2 CLR
07:25 -8.2 °C -12.4 °C 1030.7 hPa SSE 5.6 km/h   72% 0 mm 5.00 W/m2 CLR
07:30 -8.2 °C -12.3 °C 1030.7 hPa SSE 3.7 km/h 0.2 km/h 72% 0 mm 7.00 W/m2 CLR
07:35 -8.2 °C -12.3 °C 1030.7 hPa SSE 3.7 km/h 0.3 km/h 72% 0 mm 7.00 W/m2 SCT
07:40 -8.2 °C -12.3 °C 1030.4 hPa SSE 3.7 km/h 0.3 km/h 72% 0 mm 9.00 W/m2 BKN
07:45 -8.1 °C -12.3 °C 1030.4 hPa SSE 3.7 km/h 0.8 km/h 72% 0 mm 11.00 W/m2 BKN
07:50 -8.1 °C -12.2 °C 1030.4 hPa SSE 3.7 km/h 1.3 km/h 72% 0 mm 11.00 W/m2 BKN
07:55 -8 °C -12.2 °C 1030.7 hPa SSE 3.7 km/h 1 km/h 72% 0 mm 12.00 W/m2 BKN
08:00 -7.9 °C -12.1 °C 1030.7 hPa SSE 5.6 km/h 1.1 km/h 72% 0 mm 14.00 W/m2 BKN
08:05 -7.9 °C -12.1 °C 1030.7 hPa SSE 5.6 km/h 1.3 km/h 72% 0 mm 14.00 W/m2 BKN
08:10 -7.8 °C -12 °C 1030.7 hPa SSE 7.4 km/h 0.8 km/h 72% 0 mm 16.00 W/m2 BKN
08:15 -7.7 °C -11.9 °C 1030.7 hPa SSE 7.4 km/h 0.5 km/h 72% 0 mm 16.00 W/m2 BKN
08:20 -7.7 °C -11.8 °C 1030.4 hPa SSE 5.6 km/h 0.5 km/h 72% 0 mm 18.00 W/m2 BKN
08:25 -7.6 °C -11.7 °C 1030.4 hPa SSE 5.6 km/h 1 km/h 72% 0 mm 18.00 W/m2 BKN
08:30 -7.4 °C -11.6 °C 1030.4 hPa SSE 5.6 km/h 1.6 km/h 72% 0 mm 18.00 W/m2 BKN
08:35 -7.4 °C -11.6 °C 1030.7 hPa SSE 5.6 km/h 1.4 km/h 72% 0 mm 19.00 W/m2 BKN
08:40 -7.3 °C -11.4 °C 1030.4 hPa SSE 3.7 km/h 1 km/h 72% 0 mm 19.00 W/m2 BKN
08:45 -7.2 °C -11.5 °C 1030.7 hPa SSE 3.7 km/h 1.1 km/h 71% 0 mm 19.00 W/m2 BKN
08:50 -7.1 °C -11.4 °C 1030.4 hPa SSE 5.6 km/h 1.1 km/h 71% 0 mm 21.00 W/m2 BKN
08:55 -7 °C -11.4 °C 1030.4 hPa SSE 7.4 km/h 1.1 km/h 71% 0 mm 21.00 W/m2 BKN
09:00 -6.9 °C -11.3 °C 1030.4 hPa SSE 7.4 km/h 1.3 km/h 71% 0 mm 21.00 W/m2 BKN
09:05 -6.7 °C -10.9 °C 1030.4 hPa SSE 5.6 km/h 0.8 km/h 72% 0 mm 21.00 W/m2 BKN
09:10 -6.5 °C -10.7 °C 1030.4 hPa SSE 5.6 km/h 0.2 km/h 72% 0 mm 23.00 W/m2 BKN
09:15 -6.3 °C -10.5 °C 1030.4 hPa SE 5.6 km/h 0.3 km/h 72% 0 mm 23.00 W/m2 BKN
09:20 -6.1 °C -10.3 °C 1030.4 hPa SE 3.7 km/h 0.3 km/h 72% 0 mm 23.00 W/m2 BKN
09:25 -5.9 °C -10.3 °C 1030.4 hPa SSE 3.7 km/h 0.5 km/h 71% 0 mm 25.00 W/m2 BKN
09:30 -5.8 °C -10.2 °C 1030.4 hPa SSE 3.7 km/h 1 km/h 71% 0 mm 25.00 W/m2 BKN
09:35 -5.7 °C -10.1 °C 1030.4 hPa SSE 5.6 km/h 0.5 km/h 71% 0 mm 25.00 W/m2 BKN
09:40 -5.5 °C -9.9 °C 1030.4 hPa SSE 5.6 km/h 0.2 km/h 71% 0 mm 25.00 W/m2 BKN
09:45 -5.3 °C -9.8 °C 1030.4 hPa SSE 3.7 km/h   71% 0 mm 26.00 W/m2 BKN
09:50 -5.2 °C -9.8 °C 1030.4 hPa SE 3.7 km/h 0.8 km/h 70% 0 mm 26.00 W/m2 BKN
09:55 -5.1 °C -9.7 °C 1030.4 hPa SE 5.6 km/h 1 km/h 70% 0 mm 26.00 W/m2 BKN
10:00 -4.9 °C -9.7 °C 1030 hPa SSE 9.3 km/h 1 km/h 69% 0 mm 26.00 W/m2 BKN
10:05 -4.8 °C -9.8 °C 1030 hPa SSE 9.3 km/h 0.8 km/h 68% 0 mm 28.00 W/m2 BKN
10:10 -4.8 °C -9.8 °C 1030 hPa SSE 5.6 km/h   68% 0 mm 28.00 W/m2 BKN
10:15 -4.7 °C -9.8 °C 1030.4 hPa SE 7.4 km/h 0.8 km/h 67% 0 mm 28.00 W/m2 BKN
10:20 -4.5 °C -9.7 °C 1030.4 hPa SE 7.4 km/h 1 km/h 67% 0 mm 28.00 W/m2 BKN
10:25 -4.3 °C -9.7 °C 1030 hPa SE 14.8 km/h 1.1 km/h 66% 0 mm 30.00 W/m2 BKN
10:30 -4.4 °C -10 °C 1029.7 hPa SSE 14.8 km/h 1.1 km/h 65% 0 mm 30.00 W/m2 BKN
10:35 -4.3 °C -10.1 °C 1029.7 hPa SE 5.6 km/h 1 km/h 64% 0 mm 30.00 W/m2 BKN
10:40 -4.3 °C -10.1 °C 1030 hPa SE 5.6 km/h 1 km/h 64% 0 mm 32.00 W/m2 BKN
10:45 -4.2 °C -9.9 °C 1029.7 hPa SSE 9.3 km/h 0.8 km/h 64% 0 mm 32.00 W/m2 BKN
10:50 -4 °C -10 °C 1029.7 hPa SSE 9.3 km/h 1.1 km/h 63% 0 mm 33.00 W/m2 BKN
10:55 -3.9 °C -9.9 °C 1029.7 hPa SSE 9.3 km/h 1.4 km/h 63% 0 mm 33.00 W/m2 BKN
11:00 -3.7 °C -9.9 °C 1029.7 hPa SSW 7.4 km/h 1.3 km/h 62% 0 mm 33.00 W/m2 BKN
11:05 -3.7 °C -10.2 °C 1029.7 hPa SSW 11.1 km/h 1.6 km/h 61% 0 mm 35.00 W/m2 BKN
11:10 -3.6 °C -10.3 °C 1029.7 hPa SSE 11.1 km/h 2.7 km/h 60% 0 mm 35.00 W/m2 BKN
11:15 -3.7 °C -10.5 °C 1029.7 hPa SE 11.1 km/h 3.2 km/h 59% 0 mm 35.00 W/m2 BKN
11:20 -3.6 °C -10.7 °C 1029.7 hPa ENE 7.4 km/h 2.1 km/h 58% 0 mm 37.00 W/m2 BKN
11:25 -3.5 °C -10.6 °C 1029.7 hPa NNW 5.6 km/h 1.3 km/h 58% 0 mm 37.00 W/m2 BKN
11:30 -3.3 °C -10.6 °C 1029.3 hPa NNW 5.6 km/h 0.3 km/h 57% 0 mm 39.00 W/m2 BKN
11:35 -3.2 °C -10.5 °C 1029.7 hPa North 5.6 km/h 0.2 km/h 57% 0 mm 39.00 W/m2 BKN
11:40 -3 °C -10.1 °C 1029.7 hPa ESE 3.7 km/h 0.2 km/h 58% 0 mm 39.00 W/m2 BKN
11:45 -2.9 °C -10.4 °C 1029.7 hPa ESE 5.6 km/h 1 km/h 56% 0 mm 40.00 W/m2 BKN
11:50 -2.8 °C -10.3 °C 1029.3 hPa SSE 9.3 km/h 2.6 km/h 56% 0 mm 42.00 W/m2 BKN
11:55 -2.7 °C -10.7 °C 1029.7 hPa SSE 9.3 km/h 4 km/h 54% 0 mm 44.00 W/m2 BKN
12:00 -2.6 °C -10.6 °C 1029.3 hPa SSE 11.1 km/h 3.7 km/h 54% 0 mm 46.00 W/m2 BKN
12:05 -2.4 °C -10.7 °C 1029.3 hPa SSE 11.1 km/h 3.5 km/h 53% 0 mm 47.00 W/m2 BKN
12:10 -2.3 °C -10.8 °C 1029.3 hPa East 11.1 km/h 2.7 km/h 52% 0 mm 548.00 W/m2 BKN
12:15 -2.1 °C -10.6 °C 1029 hPa SE 5.6 km/h 1.3 km/h 52% 0 mm 552.00 W/m2 CLR
12:20 -1.7 °C -10.6 °C 1029 hPa SSE 7.4 km/h 1.1 km/h 51% 0 mm 559.00 W/m2 CLR
12:25 -1.5 °C -10.6 °C 1029 hPa SSE 13 km/h 3.4 km/h 50% 0 mm 561.00 W/m2 CLR
12:30 -1.3 °C -10.6 °C 1029 hPa SSE 13 km/h 4 km/h 49% 0 mm 563.00 W/m2 CLR
12:35 -0.8 °C -10.4 °C 1028.7 hPa SE 7.4 km/h 2.6 km/h 48% 0 mm 564.00 W/m2 CLR
12:40 -0.4 °C -10.3 °C 1028.7 hPa SE 11.1 km/h 2.3 km/h 47% 0 mm 564.00 W/m2 CLR
12:45 -0.6 °C -10.5 °C 1028.7 hPa SE 13 km/h 3.5 km/h 47% 0 mm 564.00 W/m2 CLR
12:50 -0.3 °C -10.2 °C 1028.7 hPa SE 13 km/h 4.7 km/h 47% 0 mm 564.00 W/m2 CLR
12:55 -0.2 °C -10.2 °C 1028.7 hPa SSE 13 km/h 4.2 km/h 47% 0 mm 563.00 W/m2 CLR
13:00 -0.2 °C -10.2 °C 1028.3 hPa SSE 13 km/h 4.5 km/h 47% 0 mm 563.00 W/m2 CLR
13:05 0.1 °C -9.9 °C 1028.3 hPa SSE 11.1 km/h 4 km/h 47% 0 mm 563.00 W/m2 CLR
13:10 0.6 °C -9.7 °C 1028.3 hPa SE 9.3 km/h 2.4 km/h 46% 0 mm 555.00 W/m2 CLR
13:15 0.3 °C -10 °C 1028 hPa ENE 13 km/h 1.6 km/h 46% 0 mm 555.00 W/m2 CLR
13:20 0.3 °C -10 °C 1028 hPa NE 13 km/h 1.4 km/h 46% 0 mm 552.00 W/m2 CLR
13:25 0.6 °C -10 °C 1028 hPa East 9.3 km/h 1.3 km/h 45% 0 mm 552.00 W/m2 CLR
13:30 1 °C -9.9 °C 1028 hPa SE 9.3 km/h 1.3 km/h 44% 0 mm 545.00 W/m2 CLR
13:35 1.3 °C -9.7 °C 1028 hPa ESE 7.4 km/h 1 km/h 44% 0 mm 538.00 W/m2 CLR
13:40 1 °C -9.6 °C 1028.3 hPa East 7.4 km/h 1.4 km/h 45% 0 mm 538.00 W/m2 CLR
13:45 1.8 °C -9.4 °C 1027.7 hPa ESE 7.4 km/h 2.4 km/h 43% 0 mm 531.00 W/m2 CLR
13:50 1.9 °C -9.6 °C 1027.7 hPa SE 7.4 km/h 1.4 km/h 42% 0 mm 527.00 W/m2 CLR
13:55 2.3 °C -9 °C 1027.7 hPa West 7.4 km/h 0.8 km/h 43% 0 mm 520.00 W/m2 CLR
14:00 2.3 °C -9.6 °C 1027.7 hPa South 7.4 km/h 1 km/h 41% 0 mm 513.00 W/m2 CLR
14:05 2.4 °C -9.8 °C 1027.3 hPa SSE 7.4 km/h 2.1 km/h 40% 0 mm 508.00 W/m2 CLR
14:10 2.2 °C -9.7 °C 1027.3 hPa SE 7.4 km/h 2.4 km/h 41% 0 mm 497.00 W/m2 CLR
14:15 3.1 °C -8.9 °C 1027.3 hPa NW 9.3 km/h 1.6 km/h 41% 0 mm 492.00 W/m2 CLR
14:20 3 °C -9.3 °C 1027.3 hPa SSE 9.3 km/h 2.1 km/h 40% 0 mm 485.00 W/m2 CLR
14:25 3.2 °C -9.2 °C 1027 hPa SSE 9.3 km/h 2.1 km/h 40% 0 mm 478.00 W/m2 CLR
14:30 2.4 °C -9.8 °C 1027 hPa SE 7.4 km/h 1.4 km/h 40% 0 mm 468.00 W/m2 CLR
14:35 2.6 °C -9.4 °C 1027 hPa East 7.4 km/h 1.1 km/h 41% 0 mm 461.00 W/m2 CLR
14:40 2.9 °C -9.1 °C 1027 hPa ESE 7.4 km/h 1.6 km/h 41% 0 mm 450.00 W/m2 CLR
14:45 3.1 °C -9.2 °C 1027.3 hPa SSE 7.4 km/h 1.9 km/h 40% 0 mm 438.00 W/m2 CLR
14:50 3.4 °C -8.9 °C 1026.6 hPa SE 5.6 km/h 1.6 km/h 40% 0 mm 431.00 W/m2 CLR
14:55 3.8 °C -9.2 °C 1026.6 hPa SE 3.2 km/h 8 km/h 38% 0 mm 413.00 W/m2 CLR
15:05 3.3 °C -9.4 °C 1026.6 hPa SSE 11.1 km/h 1.9 km/h 39% 0 mm 401.00 W/m2 CLR
15:10 3.7 °C -9 °C 1026.6 hPa SE 11.1 km/h 2.4 km/h 39% 0 mm 394.00 W/m2 CLR
15:15 3.5 °C -9.5 °C 1026.3 hPa ESE 11.1 km/h 3.7 km/h 38% 0 mm 387.00 W/m2 CLR
15:20 3.4 °C -9.2 °C 1026.3 hPa ESE 11.1 km/h 2.4 km/h 39% 0 mm 373.00 W/m2 CLR
15:25 3.7 °C -9.3 °C 1026 hPa ESE 7.4 km/h 1.3 km/h 38% 0 mm 360.00 W/m2 CLR
15:30 3.3 °C -9.7 °C 1026 hPa ESE 7.4 km/h 1.3 km/h 38% 0 mm 348.00 W/m2 CLR
15:35 3.1 °C -9.5 °C 1026 hPa ESE 7.4 km/h 2.1 km/h 39% 0 mm 332.00 W/m2 CLR
15:40 3.3 °C -9.3 °C 1026 hPa SSE 9.3 km/h 2.6 km/h 39% 0 mm 316.00 W/m2 CLR
15:45 3.7 °C -9.3 °C 1026 hPa SSE 9.3 km/h 2.7 km/h 38% 0 mm 301.00 W/m2 CLR
15:50 3.4 °C -9.6 °C 1026 hPa ESE 9.3 km/h 2.3 km/h 38% 0 mm 287.00 W/m2 CLR
15:55 3.7 °C -9.7 °C 1025.6 hPa ESE 11.1 km/h 2.3 km/h 37% 0 mm 267.00 W/m2 CLR
16:00 3.6 °C -9.7 °C 1025.6 hPa SE 11.1 km/h 3.4 km/h 37% 0 mm 255.00 W/m2 CLR
16:05 3.6 °C -9.7 °C 1025.3 hPa SSE 13 km/h 3.7 km/h 37% 0 mm 237.00 W/m2 CLR
16:10 3.8 °C -9.3 °C 1025.3 hPa SSE 13 km/h 3.7 km/h 38% 0 mm 221.00 W/m2 CLR
16:15 3.8 °C -9.6 °C 1024.9 hPa SSE 13 km/h 1.9 km/h 37% 0 mm 202.00 W/m2 CLR
16:20 4.2 °C -9.2 °C 1024.9 hPa SSE 5.6 km/h 0.3 km/h 37% 0 mm 186.00 W/m2 CLR
16:25 4.2 °C -8.9 °C 1024.9 hPa SSE 7.4 km/h 0.8 km/h 38% 0 mm 171.00 W/m2 CLR
16:30 4.1 °C -9 °C 1024.9 hPa SSE 11.1 km/h 1.4 km/h 38% 0 mm 151.00 W/m2 CLR
16:35 3.5 °C -8.8 °C 1024.6 hPa SSE 13 km/h 3.4 km/h 40% 0 mm 141.00 W/m2 CLR
16:40 3.3 °C -9.1 °C 1024.6 hPa SSE 13 km/h 6.1 km/h 40% 0 mm 125.00 W/m2 CLR
16:45 2.9 °C -9.1 °C 1024.6 hPa SSE 14.8 km/h 6.9 km/h 41% 0 mm 109.00 W/m2 FEW
16:50 2.8 °C -8.8 °C 1024.6 hPa SSE 14.8 km/h 6.1 km/h 42% 0 mm 93.00 W/m2 FEW
16:55 2.8 °C -8 °C 1024.6 hPa SSE 14.8 km/h 5.3 km/h 45% 0 mm 79.00 W/m2 SCT
17:00 2.8 °C -7.7 °C 1024.3 hPa SSE 11.1 km/h 4.7 km/h 46% 0 mm 65.00 W/m2 SCT
17:05 2.6 °C -7.6 °C 1024.6 hPa SSE 13 km/h 4.5 km/h 47% 0 mm 54.00 W/m2 SCT
17:10 2.5 °C -7.4 °C 1024.6 hPa SSE 13 km/h 4 km/h 48% 0 mm 40.00 W/m2 SCT
17:15 2.1 °C -7.5 °C 1024.6 hPa SSE 13 km/h 4.2 km/h 49% 0 mm 18.00 W/m2 BKN
17:20 1.6 °C -7.5 °C 1024.6 hPa SSE 13 km/h 6.1 km/h 51% 0 mm 16.00 W/m2 BKN
17:25 1.1 °C -7.4 °C 1024.3 hPa SSE 18.5 km/h 6.1 km/h 53% 0 mm 14.00 W/m2 BKN
17:30 0.7 °C -7.6 °C 1024.6 hPa SSE 18.5 km/h 6.3 km/h 54% 0 mm 12.00 W/m2 BKN
17:35 0.5 °C -7.3 °C 1024.3 hPa SSE 18.5 km/h 6.4 km/h 56% 0 mm 11.00 W/m2 BKN
17:40 0.4 °C -7.4 °C 1024.3 hPa SSE 11.1 km/h 5.6 km/h 56% 0 mm 7.00 W/m2 BKN
17:45 0.2 °C -7.3 °C 1024.3 hPa SSE 13 km/h 6.1 km/h 57% 0 mm 5.00 W/m2 BKN
17:50 0.1 °C -7.2 °C 1024.3 hPa SSE 16.7 km/h 6.4 km/h 58% 0 mm 0.00 W/m2 CLR
17:55 -0.1 °C -7.1 °C 1024.3 hPa SE 16.7 km/h 6.1 km/h 59% 0 mm 0.00 W/m2 OVC
18:00 -0.2 °C -7.2 °C 1023.9 hPa SSE 14.8 km/h 5 km/h 59% 0 mm 0.00 W/m2 OVC
18:05 -0.2 °C -7.1 °C 1024.3 hPa SSE 14.8 km/h 4.2 km/h 60% 0 mm 0.00 W/m2 CLR
18:10 -0.3 °C -6.9 °C 1024.3 hPa SSE 14.8 km/h 5.3 km/h 61% 0 mm 0.00 W/m2 OVC
18:15 -0.3 °C -6.9 °C 1024.3 hPa SSE 14.8 km/h 4.8 km/h 61% 0 mm 0.00 W/m2 OVC
18:20 -0.3 °C -6.7 °C 1024.3 hPa SSE 9.3 km/h 3.7 km/h 62% 0 mm 0.00 W/m2 CLR
18:25 -0.4 °C -6.8 °C 1024.3 hPa SSE 11.1 km/h 4.5 km/h 62% 0 mm 0.00 W/m2 OVC
18:30 -0.6 °C -6.5 °C 1024.3 hPa SSE 13 km/h 5.8 km/h 64% 0 mm 0.00 W/m2 CLR
18:35 -0.6 °C -6.4 °C 1023.9 hPa SSE 14.8 km/h 6.9 km/h 65% 0 mm 0.00 W/m2 OVC
18:40 -0.7 °C -6.3 °C 1023.9 hPa SSE 16.7 km/h 8.2 km/h 66% 0 mm 0.00 W/m2 OVC
18:45 -0.8 °C -6.1 °C 1023.9 hPa SSE 16.7 km/h 7.6 km/h 67% 0 mm 0.00 W/m2 CLR
18:50 -0.8 °C -6.2 °C 1023.9 hPa SSE 14.8 km/h 6.6 km/h 67% 0 mm 0.00 W/m2 OVC
18:55 -0.9 °C -6.3 °C 1024.3 hPa SSE 14.8 km/h 7.2 km/h 67% 0 mm 0.00 W/m2 CLR
19:00 -0.9 °C -6.1 °C 1024.3 hPa SE 13 km/h 7.1 km/h 68% 0 mm 0.00 W/m2 OVC
19:05 -1 °C -6.2 °C 1024.3 hPa SE 11.1 km/h 5.1 km/h 68% 0 mm 0.00 W/m2 CLR
19:10 -1.1 °C -6.2 °C 1024.3 hPa SE 9.3 km/h 4.5 km/h 68% 0 mm 0.00 W/m2 CLR
19:15 -1.1 °C -6 °C 1024.3 hPa SSE 11.1 km/h 4.5 km/h 69% 0 mm 0.00 W/m2 OVC
19:20 -1.1 °C -6.1 °C 1023.9 hPa SSE 11.1 km/h 4.8 km/h 69% 0 mm 0.00 W/m2 CLR
19:25 -1.2 °C -6.1 °C 1023.9 hPa SSE 11.1 km/h 4.7 km/h 69% 0 mm 0.00 W/m2 OVC
19:30 -1.2 °C -6.2 °C 1023.9 hPa SSE 9.3 km/h 3.7 km/h 69% 0 mm 0.00 W/m2 OVC
19:35 -1.3 °C -6.2 °C 1023.6 hPa SE 9.3 km/h 2.9 km/h 69% 0 mm 0.00 W/m2 CLR
19:40 -1.3 °C -6.2 °C 1023.6 hPa ESE 9.3 km/h 3.4 km/h 69% 0 mm 0.00 W/m2 OVC
19:45 -1.3 °C -6.3 °C 1023.2 hPa SE 9.3 km/h 4.5 km/h 69% 0 mm 0.00 W/m2 CLR
19:50 -1.4 °C -6.3 °C 1023.2 hPa SSE 13 km/h 5.6 km/h 69% 0 mm 0.00 W/m2 OVC
19:55 -1.4 °C -6.3 °C 1022.9 hPa SSE 13 km/h 5.1 km/h 69% 0 mm 0.00 W/m2 CLR
20:00 -1.4 °C -6.6 °C 1022.9 hPa SSE 9.3 km/h 4.2 km/h 68% 0 mm 0.00 W/m2 OVC
20:05 -1.4 °C -6.6 °C 1022.9 hPa SE 13 km/h 4.5 km/h 68% 0 mm 0.00 W/m2 OVC
20:10 -1.4 °C -6.6 °C 1022.9 hPa SSE 13 km/h 5.6 km/h 68% 0 mm 0.00 W/m2 CLR
20:15 -1.4 °C -6.6 °C 1022.9 hPa SSE 13 km/h 5.3 km/h 68% 0 mm 0.00 W/m2 OVC
20:20 -1.5 °C -6.8 °C 1022.9 hPa SSE 9.3 km/h 4.2 km/h 67% 0 mm 0.00 W/m2 CLR
20:25 -1.5 °C -6.8 °C 1022.6 hPa SE 13 km/h 3.9 km/h 67% 0 mm 0.00 W/m2 CLR
20:30 -1.5 °C -6.8 °C 1022.6 hPa SE 14.8 km/h 4.2 km/h 67% 0 mm 0.00 W/m2 CLR
20:35 -1.5 °C -6.8 °C 1022.6 hPa SE 14.8 km/h 4.2 km/h 67% 0 mm 0.00 W/m2 OVC
20:40 -1.5 °C -7 °C 1022.2 hPa SSE 13 km/h 4.5 km/h 66% 0 mm 0.00 W/m2 OVC
20:45 -1.5 °C -7 °C 1022.2 hPa SSE 13 km/h 5.3 km/h 66% 0 mm 0.00 W/m2 CLR
20:50 -1.5 °C -7 °C 1022.2 hPa SSE 13 km/h 5.8 km/h 66% 0 mm 0.00 W/m2 OVC
20:55 -1.5 °C -7.2 °C 1022.2 hPa SSE 11.1 km/h 4.7 km/h 65% 0 mm 0.00 W/m2 OVC
21:00 -1.5 °C -7.2 °C 1021.9 hPa SSE 14.8 km/h 5.3 km/h 65% 0 mm 0.00 W/m2 OVC
21:05 -1.4 °C -7.2 °C 1021.9 hPa SE 14.8 km/h 6.9 km/h 65% 0 mm 0.00 W/m2 CLR
21:10 -1.4 °C -7.2 °C 1021.9 hPa SE 13 km/h 6.4 km/h 65% 0 mm 0.00 W/m2 CLR
21:15 -1.4 °C -7.3 °C 1021.9 hPa SSE 13 km/h 6.4 km/h 64% 0 mm 0.00 W/m2 CLR
21:20 -1.4 °C -7.3 °C 1021.9 hPa South 16.7 km/h 6.6 km/h 64% 0 mm 0.00 W/m2 CLR
21:25 -1.3 °C -7.3 °C 1021.6 hPa South 16.7 km/h 6.1 km/h 64% 0 mm 0.00 W/m2 OVC
21:30 -1.3 °C -7.3 °C 1021.6 hPa SSE 14.8 km/h 6.9 km/h 64% 0 mm 0.00 W/m2 CLR
21:35 -1.3 °C -7.3 °C 1021.6 hPa SSE 14.8 km/h 6.6 km/h 64% 0 mm 0.00 W/m2 OVC
21:40 -1.3 °C -7.3 °C 1021.6 hPa SSE 9.3 km/h 5.8 km/h 64% 0 mm 0.00 W/m2 CLR
21:45 -1.3 °C -7.3 °C 1021.6 hPa SSE 9.3 km/h 4.7 km/h 64% 0 mm 0.00 W/m2 OVC
21:50 -1.3 °C -7.4 °C 1021.6 hPa SE 9.3 km/h 3.5 km/h 63% 0 mm 0.00 W/m2 CLR
21:55 -1.3 °C -7.4 °C 1021.6 hPa SSE 7.4 km/h 2.9 km/h 63% 0 mm 0.00 W/m2 OVC
22:00 -1.2 °C -7.4 °C 1021.6 hPa SSE 9.3 km/h 2.6 km/h 63% 0 mm 0.00 W/m2 OVC
22:05 -1.2 °C -7.5 °C 1021.6 hPa SSE 11.1 km/h 3.2 km/h 62% 0 mm 0.00 W/m2 OVC
22:10 -1.2 °C -7.5 °C 1021.2 hPa SSE 11.1 km/h 3.9 km/h 62% 0 mm 0.00 W/m2 CLR
22:15 -1.1 °C -7.7 °C 1021.2 hPa SSE 13 km/h 4.8 km/h 61% 0 mm 0.00 W/m2 CLR
22:20 -1.1 °C -7.7 °C 1021.2 hPa SSE 13 km/h 4.8 km/h 61% 0 mm 0.00 W/m2 OVC
22:25 -1.1 °C -7.7 °C 1021.2 hPa SSE 9.3 km/h 3.9 km/h 61% 0 mm 0.00 W/m2 CLR
22:30 -1.1 °C -7.8 °C 1021.2 hPa SSE 11.1 km/h 5.8 km/h 60% 0 mm 0.00 W/m2 OVC
22:35 -1 °C -7.8 °C 1021.2 hPa SSE 11.1 km/h 6 km/h 60% 0 mm 0.00 W/m2 OVC
22:40 -1 °C -7.8 °C 1020.9 hPa SSE 11.1 km/h 4.7 km/h 60% 0 mm 0.00 W/m2 OVC
22:45 -1 °C -7.8 °C 1021.2 hPa SSE 11.1 km/h 4.8 km/h 60% 0 mm 0.00 W/m2 CLR
22:50 -0.9 °C -7.9 °C 1021.2 hPa SSE 11.1 km/h 4.8 km/h 59% 0 mm 0.00 W/m2 OVC
High Park Village Arhives